This is the latest recevied weather packets stored in our database for station/object W4EDL-13. If no packets are shown the sender has not sent any weather packets the latest 10 day(s).
| Time | Temp. | Humidity | Pressure | Rain* | Wind** | Luminosity | Snow |
|---|---|---|---|---|---|---|---|
| 1777502257 | 28.33° C | 58% | 1002.2 hPa | - | - | - | - |
| 1777501656 | 28.89° C | 55% | 1002.2 hPa | - | - | - | - |
| 1777501656 | 28.89° C | 55% | 1002.2 hPa | - | - | - | - |
| 1777501055 | 28.89° C | 56% | 1002.2 hPa | - | - | - | - |
| 1777500454 | 28.89° C | 56% | 1002.2 hPa | - | - | - | - |
| 1777499853 | 30° C | 52% | 1002.2 hPa | - | - | - | - |
| 1777499253 | 29.44° C | 51% | 1002.5 hPa | - | - | - | - |
| 1777498652 | 31.11° C | 49% | 1002.5 hPa | - | - | - | - |
| 1777498052 | 30.56° C | 48% | 1002.2 hPa | - | - | - | - |
| 1777497451 | 31.11° C | 48% | 1002.5 hPa | - | - | - | - |
| 1777496851 | 31.11° C | 48% | 1002.9 hPa | - | - | - | - |
| 1777496250 | 31.67° C | 46% | 1002.9 hPa | - | - | - | - |
| 1777495650 | 31.67° C | 45% | 1002.9 hPa | - | - | - | - |
| 1777495049 | 31.11° C | 47% | 1002.9 hPa | - | - | - | - |
| 1777494449 | 29.44° C | 49% | 1002.9 hPa | - | - | - | - |
| 1777493848 | 31.11° C | 45% | 1003.2 hPa | - | - | - | - |
| 1777493247 | 31.67° C | 47% | 1003.6 hPa | - | - | - | - |
| 1777492647 | 31.67° C | 45% | 1003.9 hPa | - | - | - | - |
| 1777492046 | 33.33° C | 42% | 1003.9 hPa | - | - | - | - |
| 1777491445 | 32.78° C | 44% | 1003.9 hPa | - | - | - | - |
| 1777490845 | 31.67° C | 46% | 1004.6 hPa | - | - | - | - |
| 1777490244 | 32.22° C | 48% | 1004.9 hPa | - | - | - | - |
| 1777489644 | 32.22° C | 46% | 1004.9 hPa | - | - | - | - |
| 1777489043 | 32.22° C | 46% | 1005.6 hPa | - | - | - | - |
| 1777488443 | 31.67° C | 46% | 1005.6 hPa | - | - | - | - |
* Rain since midnight (hover to see other rain measurements)
** Current wind speed in m/s (hover to see current wind gust speed)